createdAt,value
2018-09-06T00:00:31.319Z,76.88
2018-09-06T00:01:31.308Z,76.46
2018-09-06T00:02:31.302Z,76.56
2018-09-06T00:03:31.292Z,77.04
2018-09-06T00:04:31.278Z,77.51
2018-09-06T00:05:31.280Z,76.84
2018-09-06T00:06:31.265Z,77.04
2018-09-06T00:07:31.262Z,76.84
2018-09-06T00:08:31.251Z,77.51
2018-09-06T00:09:31.242Z,77.51
2018-09-06T00:10:31.235Z,78.00
2018-09-06T00:11:31.223Z,77.61
2018-09-06T00:12:31.211Z,78.28
2018-09-06T00:13:31.210Z,78.96
2018-09-06T00:14:31.202Z,78.77
2018-09-06T00:15:31.195Z,78.77
2018-09-06T00:16:31.183Z,78.57
2018-09-06T00:17:31.177Z,78.47
2018-09-06T00:18:31.160Z,78.38
2018-09-06T00:19:31.160Z,78.47
2018-09-06T00:20:31.147Z,78.67
2018-09-06T00:21:31.144Z,78.57
2018-09-06T00:22:31.134Z,78.09
2018-09-06T00:23:31.117Z,78.38
2018-09-06T00:24:31.116Z,78.77
2018-09-06T00:25:31.104Z,78.38
2018-09-06T00:26:31.100Z,78.67
2018-09-06T00:27:31.087Z,78.47
2018-09-06T00:28:31.076Z,78.47
2018-09-06T00:29:31.067Z,78.86
2018-09-06T00:30:31.060Z,79.14
2018-09-06T00:31:31.055Z,78.38
2018-09-06T00:32:31.045Z,78.19
2018-09-06T00:33:31.039Z,78.38
2018-09-06T00:34:31.033Z,78.57
2018-09-06T00:35:31.018Z,78.38
2018-09-06T00:36:31.012Z,78.57
2018-09-06T00:37:31.006Z,78.38
2018-09-06T00:38:30.993Z,78.38
2018-09-06T00:39:30.984Z,78.19
2018-09-06T00:40:30.974Z,78.67
2018-09-06T00:41:30.970Z,78.57
2018-09-06T00:42:30.958Z,78.47
2018-09-06T00:43:30.948Z,78.86
2018-09-06T00:44:30.937Z,78.77
2018-09-06T00:45:30.935Z,78.47
2018-09-06T00:46:30.924Z,78.57
2018-09-06T00:47:30.911Z,78.28
2018-09-06T00:48:30.909Z,78.19
2018-09-06T00:49:30.899Z,78.57
2018-09-06T00:50:30.890Z,78.67
2018-09-06T00:51:30.879Z,78.47
2018-09-06T00:52:30.869Z,78.96
2018-09-06T00:53:30.861Z,78.67
2018-09-06T00:54:30.851Z,78.82
2018-09-06T00:55:30.850Z,79.11
2018-09-06T00:56:30.840Z,78.67
2018-09-06T00:57:30.832Z,78.63
2018-09-06T00:58:30.824Z,78.53
2018-09-06T00:59:30.832Z,78.53
2018-09-06T01:00:30.802Z,78.44
2018-09-06T01:01:30.796Z,78.34
2018-09-06T01:02:30.786Z,78.34
2018-09-06T01:03:30.775Z,78.28
2018-09-06T01:04:30.768Z,78.38
2018-09-06T01:05:30.761Z,78.25
2018-09-06T01:06:30.753Z,78.57
2018-09-06T01:07:30.739Z,78.38
2018-09-06T01:08:30.731Z,78.77
2018-09-06T01:09:30.719Z,78.47
2018-09-06T01:10:30.715Z,78.92
2018-09-06T01:11:30.710Z,78.63
2018-09-06T01:12:30.692Z,78.63
2018-09-06T01:13:30.690Z,78.44
2018-09-06T01:14:30.682Z,78.72
2018-09-06T01:15:30.667Z,78.63
2018-09-06T01:16:30.668Z,78.53
2018-09-06T01:17:30.656Z,78.44
2018-09-06T01:18:30.649Z,78.53
2018-09-06T01:19:30.638Z,78.63
2018-09-06T01:20:30.632Z,78.72
2018-09-06T01:21:30.620Z,77.67
2018-09-06T01:22:30.614Z,77.86
2018-09-06T01:23:30.600Z,78.34
2018-09-06T01:24:30.594Z,78.25
2018-09-06T01:25:30.585Z,78.44
2018-09-06T01:26:30.576Z,79.11
2018-09-06T01:27:30.567Z,78.63
2018-09-06T01:28:30.557Z,78.72
2018-09-06T01:29:30.554Z,78.82
2018-09-06T01:30:30.539Z,78.53
2018-09-06T01:31:30.537Z,78.53
2018-09-06T01:32:30.523Z,78.63
2018-09-06T01:33:30.517Z,78.72
2018-09-06T01:34:30.513Z,78.53
2018-09-06T01:35:30.496Z,78.44
2018-09-06T01:36:30.492Z,78.44
2018-09-06T01:37:30.484Z,78.92
2018-09-06T01:38:30.533Z,78.63
2018-09-06T01:39:30.461Z,78.53
2018-09-06T01:40:30.455Z,78.72
2018-09-06T01:41:30.453Z,79.11
2018-09-06T01:42:30.441Z,78.82
2018-09-06T01:43:30.432Z,79.01
2018-09-06T01:44:30.417Z,79.11
2018-09-06T01:45:30.409Z,79.11
2018-09-06T01:46:30.399Z,79.11
2018-09-06T01:47:30.389Z,78.63
2018-09-06T01:48:30.383Z,78.53
2018-09-06T01:49:30.373Z,78.44
2018-09-06T01:50:30.364Z,78.34
2018-09-06T01:51:30.365Z,78.53
2018-09-06T01:52:30.348Z,78.63
2018-09-06T01:53:30.338Z,78.72
2018-09-06T01:54:30.331Z,78.72
2018-09-06T01:55:30.318Z,78.88
2018-09-06T01:56:30.320Z,78.78
2018-09-06T01:57:30.302Z,79.01
2018-09-06T01:58:30.300Z,79.49
2018-09-06T01:59:30.291Z,79.55
2018-09-06T02:00:30.279Z,79.21
2018-09-06T02:01:30.271Z,78.59
2018-09-06T02:02:30.259Z,78.78
2018-09-06T02:03:30.253Z,79.07
2018-09-06T02:04:30.243Z,78.97
2018-09-06T02:05:30.233Z,79.26
2018-09-06T02:06:30.225Z,79.16
2018-09-06T02:07:30.214Z,79.36
2018-09-06T02:08:30.210Z,79.45
2018-09-06T02:09:30.248Z,79.07
2018-09-06T02:10:30.193Z,79.16
2018-09-06T02:11:30.177Z,79.16
2018-09-06T02:12:30.174Z,79.07
2018-09-06T02:13:30.160Z,79.45
2018-09-06T02:14:30.156Z,79.64
2018-09-06T02:15:30.149Z,79.64
2018-09-06T02:16:30.137Z,79.16
2018-09-06T02:17:30.127Z,79.55
2018-09-06T02:18:30.115Z,79.26
2018-09-06T02:19:30.107Z,79.26
2018-09-06T02:20:30.101Z,79.55
2018-09-06T02:21:30.094Z,79.45
2018-09-06T02:22:30.081Z,79.55
2018-09-06T02:23:30.076Z,79.83
2018-09-06T02:24:30.099Z,79.83
2018-09-06T02:25:30.056Z,80.03
2018-09-06T02:26:30.046Z,80.03
2018-09-06T02:27:30.046Z,79.93
2018-09-06T02:28:30.031Z,79.83
2018-09-06T02:29:30.022Z,79.55
2018-09-06T02:30:30.015Z,79.36
2018-09-06T02:31:30.001Z,79.83
2018-09-06T02:32:29.994Z,79.93
2018-09-06T02:33:29.984Z,79.74
2018-09-06T02:34:29.979Z,79.74
2018-09-06T02:35:29.968Z,79.45
2018-09-06T02:36:29.961Z,80.03
2018-09-06T02:37:29.951Z,79.93
2018-09-06T02:38:29.940Z,79.36
2018-09-06T02:39:29.934Z,80.03
2018-09-06T02:40:29.924Z,79.74
2018-09-06T02:41:29.912Z,79.83
2018-09-06T02:42:29.909Z,79.83
2018-09-06T02:43:29.896Z,79.83
2018-09-06T02:44:29.882Z,79.83
2018-09-06T02:45:29.877Z,79.83
2018-09-06T02:46:29.871Z,79.83
2018-09-06T02:47:29.863Z,79.83
2018-09-06T02:48:29.860Z,79.93
2018-09-06T02:49:29.843Z,79.55
2018-09-06T02:50:29.840Z,79.55
2018-09-06T02:51:29.821Z,79.55
2018-09-06T02:52:29.819Z,79.45
2018-09-06T02:53:29.799Z,80.03
2018-09-06T02:54:29.798Z,79.74
2018-09-06T02:55:29.786Z,79.64
2018-09-06T02:56:29.772Z,79.55
2018-09-06T02:57:29.768Z,79.45
2018-09-06T02:58:29.764Z,79.80
2018-09-06T02:59:29.751Z,79.55
2018-09-06T03:00:29.744Z,80.27
2018-09-06T03:01:29.736Z,80.47
2018-09-06T03:02:29.728Z,80.66
2018-09-06T03:03:29.724Z,81.23
2018-09-06T03:04:29.703Z,80.85
2018-09-06T03:05:29.697Z,81.04
2018-09-06T03:06:29.685Z,80.85
2018-09-06T03:07:29.676Z,81.43
2018-09-06T03:08:29.666Z,81.04
2018-09-06T03:09:29.661Z,81.52
2018-09-06T03:10:29.652Z,80.66
2018-09-06T03:11:29.637Z,81.23
2018-09-06T03:12:29.629Z,80.76
2018-09-06T03:13:29.617Z,82.00
2018-09-06T03:14:29.609Z,80.94
2018-09-06T03:15:29.657Z,81.23
2018-09-06T03:16:29.594Z,81.52
2018-09-06T03:17:29.587Z,81.52
2018-09-06T03:18:29.581Z,81.62
2018-09-06T03:19:29.565Z,81.62
2018-09-06T03:20:29.555Z,81.62
2018-09-06T03:21:29.551Z,81.52
2018-09-06T03:22:29.541Z,81.62
2018-09-06T03:23:29.529Z,81.33
2018-09-06T03:24:29.520Z,81.71
2018-09-06T03:25:29.516Z,81.90
2018-09-06T03:26:29.500Z,81.52
2018-09-06T03:27:29.497Z,81.52
2018-09-06T03:28:29.484Z,81.62
2018-09-06T03:29:29.473Z,81.90
2018-09-06T03:30:29.476Z,81.62
2018-09-06T03:31:29.465Z,81.90
2018-09-06T03:32:29.451Z,81.33
2018-09-06T03:33:29.435Z,81.43
2018-09-06T03:34:29.431Z,81.52
2018-09-06T03:35:29.418Z,81.71
2018-09-06T03:36:29.415Z,82.00
2018-09-06T03:37:29.404Z,82.09
2018-09-06T03:38:29.392Z,81.81
2018-09-06T03:39:29.386Z,81.71
2018-09-06T03:40:29.372Z,82.09
2018-09-06T03:41:29.360Z,81.62
2018-09-06T03:42:29.360Z,81.90
2018-09-06T03:43:29.347Z,82.09
2018-09-06T03:44:29.338Z,81.71
2018-09-06T03:45:29.329Z,81.62
2018-09-06T03:46:29.318Z,81.52
2018-09-06T03:47:29.308Z,81.04
2018-09-06T03:48:29.296Z,81.13
2018-09-06T03:49:29.293Z,81.77
2018-09-06T03:50:29.281Z,81.86
2018-09-06T03:51:29.278Z,82.06
2018-09-06T03:52:29.262Z,81.96
2018-09-06T03:53:29.252Z,82.24
2018-09-06T03:54:29.244Z,82.06
2018-09-06T03:55:29.236Z,82.15
2018-09-06T03:56:29.227Z,81.86
2018-09-06T03:57:29.218Z,82.15
2018-09-06T03:58:29.208Z,81.57
2018-09-06T03:59:29.202Z,82.24
2018-09-06T04:00:29.187Z,81.86
2018-09-06T04:01:29.180Z,81.57
2018-09-06T04:02:29.177Z,81.57
2018-09-06T04:03:29.162Z,81.71
2018-09-06T04:04:29.154Z,81.10
2018-09-06T04:05:29.143Z,80.33
2018-09-06T04:06:29.131Z,80.81
2018-09-06T04:07:29.127Z,80.81
2018-09-06T04:08:29.113Z,80.90
2018-09-06T04:09:29.106Z,80.94
2018-09-06T04:10:29.098Z,81.23
2018-09-06T04:11:29.084Z,81.00
2018-09-06T04:12:29.083Z,81.00
2018-09-06T04:13:29.066Z,80.81
2018-09-06T04:14:29.056Z,80.71
2018-09-06T04:15:29.047Z,81.00
2018-09-06T04:16:29.042Z,81.00
2018-09-06T04:17:29.029Z,80.90
2018-09-06T04:18:29.080Z,81.00
2018-09-06T04:19:29.019Z,81.10
2018-09-06T04:20:28.999Z,80.52
2018-09-06T04:21:28.991Z,80.62
2018-09-06T04:22:28.984Z,81.00
2018-09-06T04:23:28.975Z,80.62
2018-09-06T04:24:29.035Z,81.20
2018-09-06T04:25:28.953Z,80.90
2018-09-06T04:26:28.946Z,80.81
2018-09-06T04:27:28.929Z,80.90
2018-09-06T04:28:28.952Z,80.71
2018-09-06T04:29:28.920Z,81.38
2018-09-06T04:30:28.911Z,80.71
2018-09-06T04:31:28.892Z,80.62
2018-09-06T04:32:28.892Z,80.81
2018-09-06T04:33:28.876Z,80.67
2018-09-06T04:34:28.866Z,81.34
2018-09-06T04:35:28.913Z,81.54
2018-09-06T04:36:28.846Z,81.44
2018-09-06T04:37:28.845Z,81.92
2018-09-06T04:38:28.830Z,82.49
2018-09-06T04:39:28.823Z,82.01
2018-09-06T04:40:28.814Z,82.30
2018-09-06T04:41:28.807Z,82.01
2018-09-06T04:42:28.796Z,81.92
2018-09-06T04:43:28.784Z,82.20
2018-09-06T04:44:28.777Z,81.92
2018-09-06T04:45:28.766Z,82.01
2018-09-06T04:46:28.753Z,82.30
2018-09-06T04:47:28.748Z,82.30
2018-09-06T04:48:28.736Z,82.20
2018-09-06T04:49:28.727Z,82.24
2018-09-06T04:50:28.718Z,82.01
2018-09-06T04:51:28.711Z,81.25
2018-09-06T04:52:28.702Z,81.15
2018-09-06T04:53:28.684Z,80.71
2018-09-06T04:54:28.683Z,81.00
2018-09-06T04:55:28.670Z,80.81
2018-09-06T04:56:28.663Z,81.57
2018-09-06T04:57:28.651Z,81.57
2018-09-06T04:58:28.701Z,81.38
2018-09-06T04:59:28.627Z,81.57
2018-09-06T05:00:28.619Z,81.67
2018-09-06T05:01:28.615Z,81.38
2018-09-06T05:02:28.607Z,81.67
2018-09-06T05:03:28.591Z,81.73
2018-09-06T05:04:28.649Z,81.86
2018-09-06T05:05:28.573Z,80.90
2018-09-06T05:06:28.567Z,80.62
2018-09-06T05:07:28.553Z,81.38
2018-09-06T05:08:28.541Z,81.67
2018-09-06T05:09:28.535Z,81.67
2018-09-06T05:10:28.524Z,81.48
2018-09-06T05:11:28.516Z,81.57
2018-09-06T05:12:28.508Z,81.57
2018-09-06T05:13:28.495Z,81.96
2018-09-06T05:14:28.486Z,80.81
2018-09-06T05:15:28.475Z,81.20
2018-09-06T05:16:28.468Z,80.71
2018-09-06T05:17:28.462Z,81.00
2018-09-06T05:18:28.446Z,81.10
2018-09-06T05:19:28.437Z,81.10
2018-09-06T05:20:28.427Z,80.71
2018-09-06T05:21:28.419Z,80.29
2018-09-06T05:22:28.416Z,81.44
2018-09-06T05:23:28.401Z,81.73
2018-09-06T05:24:28.394Z,82.20
2018-09-06T05:25:28.379Z,82.40
2018-09-06T05:26:28.371Z,82.01
2018-09-06T05:27:28.358Z,82.11
2018-09-06T05:28:28.354Z,82.20
2018-09-06T05:29:28.339Z,82.01
2018-09-06T05:30:28.336Z,82.11
2018-09-06T05:31:28.322Z,82.40
2018-09-06T05:32:28.315Z,82.30
2018-09-06T05:33:28.299Z,82.49
2018-09-06T05:34:28.291Z,82.78
2018-09-06T05:35:28.280Z,82.87
2018-09-06T05:36:28.338Z,83.45
2018-09-06T05:37:28.264Z,83.45
2018-09-06T05:38:28.256Z,83.45
2018-09-06T05:39:28.249Z,83.45
2018-09-06T05:40:28.232Z,83.54
2018-09-06T05:41:28.222Z,83.54
2018-09-06T05:42:28.220Z,83.26
2018-09-06T05:43:28.210Z,82.78
2018-09-06T05:44:28.197Z,82.87
2018-09-06T05:45:28.187Z,82.97
2018-09-06T05:46:28.171Z,82.73
2018-09-06T05:47:28.237Z,82.68
2018-09-06T05:48:28.161Z,81.73
2018-09-06T05:49:28.149Z,80.71
2018-09-06T05:50:28.133Z,80.77
2018-09-06T05:51:28.128Z,81.00
2018-09-06T05:52:28.117Z,80.71
2018-09-06T05:53:28.169Z,81.96
2018-09-06T05:54:28.099Z,81.48
2018-09-06T05:55:28.088Z,81.77
2018-09-06T05:56:28.078Z,81.57
2018-09-06T05:57:28.068Z,81.48
2018-09-06T05:58:28.063Z,81.48
2018-09-06T05:59:28.065Z,81.67
2018-09-06T06:00:28.039Z,81.57
2018-09-06T06:01:28.035Z,81.77
2018-09-06T06:02:28.025Z,81.96
2018-09-06T06:03:28.012Z,81.48
2018-09-06T06:04:28.003Z,81.86
2018-09-06T06:05:27.993Z,81.67
2018-09-06T06:06:27.981Z,81.86
2018-09-06T06:07:27.973Z,81.48
2018-09-06T06:08:27.967Z,81.86
2018-09-06T06:09:27.957Z,81.48
2018-09-06T06:10:27.944Z,82.15
2018-09-06T06:11:27.932Z,81.77
2018-09-06T06:12:27.930Z,81.10
2018-09-06T06:13:27.914Z,81.67
2018-09-06T06:14:27.904Z,81.48
2018-09-06T06:15:27.899Z,81.67
2018-09-06T06:16:27.887Z,81.20
2018-09-06T06:17:27.877Z,80.04
2018-09-06T06:18:27.869Z,80.24
2018-09-06T06:19:27.864Z,79.57
2018-09-06T06:20:27.846Z,80.24
2018-09-06T06:21:27.840Z,80.24
2018-09-06T06:22:27.834Z,79.75
2018-09-06T06:23:27.816Z,79.95
2018-09-06T06:24:27.816Z,79.85
2018-09-06T06:25:27.801Z,79.85
2018-09-06T06:26:27.793Z,80.04
2018-09-06T06:27:27.777Z,80.14
2018-09-06T06:28:27.767Z,79.95
2018-09-06T06:29:27.764Z,80.43
2018-09-06T06:30:27.752Z,80.04
2018-09-06T06:31:27.743Z,80.56
2018-09-06T06:32:27.738Z,80.81
2018-09-06T06:33:27.724Z,80.90
2018-09-06T06:34:27.709Z,80.24
2018-09-06T06:35:27.706Z,80.27
2018-09-06T06:36:27.692Z,80.27
2018-09-06T06:37:27.685Z,80.56
2018-09-06T06:38:27.678Z,80.27
2018-09-06T06:39:27.667Z,79.80
2018-09-06T06:40:27.657Z,79.89
2018-09-06T06:41:27.652Z,79.70
2018-09-06T06:42:27.643Z,79.64
2018-09-06T06:43:27.629Z,79.55
2018-09-06T06:44:27.619Z,79.26
2018-09-06T06:45:27.607Z,79.83
2018-09-06T06:46:27.599Z,79.55
2018-09-06T06:47:27.590Z,79.55
2018-09-06T06:48:27.582Z,78.92
2018-09-06T06:49:27.568Z,78.97
2018-09-06T06:50:27.684Z,78.44
2018-09-06T06:51:27.556Z,78.72
2018-09-06T06:52:27.544Z,78.25
2018-09-06T06:53:27.534Z,78.34
2018-09-06T06:54:27.524Z,77.86
2018-09-06T06:55:27.517Z,77.29
2018-09-06T06:56:27.503Z,77.04
2018-09-06T06:57:27.495Z,77.04
2018-09-06T06:58:27.530Z,76.94
2018-09-06T06:59:27.482Z,76.65
2018-09-06T07:00:27.467Z,76.56
2018-09-06T07:01:27.461Z,76.75
2018-09-06T07:02:27.457Z,76.79
2018-09-06T07:03:27.438Z,76.50
2018-09-06T07:04:27.462Z,75.92
2018-09-06T07:05:27.422Z,76.12
2018-09-06T07:06:27.416Z,75.73
2018-09-06T07:07:27.401Z,75.54
2018-09-06T07:08:27.401Z,75.77
2018-09-06T07:09:27.390Z,75.57
2018-09-06T07:10:27.386Z,75.96
2018-09-06T07:11:27.366Z,75.38
2018-09-06T07:12:27.362Z,75.48
2018-09-06T07:13:27.354Z,75.29
2018-09-06T07:14:27.345Z,75.48
2018-09-06T07:15:27.334Z,74.85
2018-09-06T07:16:27.326Z,74.94
2018-09-06T07:17:27.316Z,75.04
2018-09-06T07:18:27.454Z,74.17
2018-09-06T07:19:27.301Z,73.79
2018-09-06T07:20:27.291Z,73.69
2018-09-06T07:21:27.285Z,73.44
2018-09-06T07:22:27.277Z,73.25
2018-09-06T07:23:27.267Z,73.25
2018-09-06T07:24:27.262Z,73.15
2018-09-06T07:25:27.254Z,73.54
2018-09-06T07:26:27.243Z,73.54
2018-09-06T07:27:27.232Z,73.63
2018-09-06T07:28:27.226Z,73.15
2018-09-06T07:29:27.220Z,73.25
2018-09-06T07:30:27.230Z,73.54
2018-09-06T07:31:27.200Z,73.19
2018-09-06T07:32:27.196Z,72.32
2018-09-06T07:33:27.186Z,72.61
2018-09-06T07:34:27.179Z,72.52
2018-09-06T07:35:27.169Z,71.94
2018-09-06T07:36:27.163Z,72.13
2018-09-06T07:37:27.153Z,72.03
2018-09-06T07:38:27.147Z,72.13
2018-09-06T07:39:27.137Z,71.94
2018-09-06T07:40:27.132Z,71.36
2018-09-06T07:41:27.194Z,71.36
2018-09-06T07:42:27.114Z,72.17
2018-09-06T07:43:27.111Z,72.17
2018-09-06T07:44:27.095Z,73.03
2018-09-06T07:45:27.096Z,71.97
2018-09-06T07:46:27.079Z,71.97
2018-09-06T07:47:27.074Z,71.59
2018-09-06T07:48:27.069Z,70.72
2018-09-06T07:49:27.061Z,70.43
2018-09-06T07:50:27.049Z,70.34
2018-09-06T07:51:27.046Z,70.09
2018-09-06T07:52:27.107Z,69.60
2018-09-06T07:53:27.028Z,69.41
2018-09-06T07:54:27.023Z,69.22
2018-09-06T07:55:27.010Z,69.22
2018-09-06T07:56:26.998Z,69.22
2018-09-06T07:57:26.997Z,69.79
2018-09-06T07:58:26.987Z,69.02
2018-09-06T07:59:26.979Z,69.15
2018-09-06T08:00:26.974Z,68.64
2018-09-06T08:01:26.990Z,68.10
2018-09-06T08:02:26.963Z,68.77
2018-09-06T08:03:26.953Z,68.38
2018-09-06T08:04:26.943Z,68.00
2018-09-06T08:05:26.933Z,67.33
2018-09-06T08:06:26.936Z,67.90
2018-09-06T08:07:26.926Z,67.42
2018-09-06T08:08:26.915Z,66.75
2018-09-06T08:09:26.904Z,65.20
2018-09-06T08:10:26.899Z,62.63
2018-09-06T08:11:26.887Z,64.37
2018-09-06T08:12:26.886Z,64.18
2018-09-06T08:13:26.881Z,63.98
2018-09-06T08:14:26.870Z,64.86
2018-09-06T08:15:26.863Z,63.41
2018-09-06T08:16:26.866Z,64.66
2018-09-06T08:17:26.847Z,64.66
2018-09-06T08:18:26.844Z,64.11
2018-09-06T08:19:26.842Z,61.51
2018-09-06T08:20:26.827Z,61.32
2018-09-06T08:21:26.817Z,62.76
2018-09-06T08:22:26.817Z,64.50
2018-09-06T08:23:26.804Z,64.31
2018-09-06T08:24:27.004Z,63.24
2018-09-06T08:25:26.789Z,62.48
2018-09-06T08:26:26.786Z,63.82
2018-09-06T08:27:26.778Z,64.69
2018-09-06T08:28:26.770Z,63.73
2018-09-06T08:29:26.766Z,64.31
2018-09-06T08:30:26.806Z,66.14
2018-09-06T08:31:26.800Z,64.50
2018-09-06T08:32:26.741Z,63.24
2018-09-06T08:33:26.745Z,63.24
2018-09-06T08:34:26.733Z,62.09
2018-09-06T08:35:26.723Z,62.41
2018-09-06T08:36:26.757Z,63.28
2018-09-06T08:37:26.705Z,63.18
2018-09-06T08:38:26.707Z,61.83
2018-09-06T08:39:26.698Z,61.25
2018-09-06T08:40:26.686Z,60.74
2018-09-06T08:41:26.680Z,61.80
2018-09-06T08:42:26.676Z,64.11
2018-09-06T08:43:26.668Z,63.24
2018-09-06T08:44:26.668Z,63.37
2018-09-06T08:45:26.744Z,63.85
2018-09-06T08:46:26.652Z,63.76
2018-09-06T08:47:26.668Z,62.60
2018-09-06T08:48:26.637Z,60.96
2018-09-06T08:49:26.640Z,60.00
2018-09-06T08:50:26.649Z,59.90
2018-09-06T08:51:26.616Z,59.32
2018-09-06T08:52:26.705Z,58.36
2018-09-06T08:53:26.602Z,57.49
2018-09-06T08:54:26.594Z,57.97
2018-09-06T08:55:26.589Z,58.26
2018-09-06T08:56:26.596Z,57.78
2018-09-06T08:57:26.575Z,57.20
2018-09-06T08:58:26.680Z,57.97
2018-09-06T08:59:26.567Z,59.23
2018-09-06T09:00:26.558Z,58.75
2018-09-06T09:01:26.552Z,59.23
2018-09-06T09:02:26.631Z,58.68
2018-09-06T09:03:26.545Z,58.97
2018-09-06T09:04:26.533Z,58.87
2018-09-06T09:05:26.534Z,59.06
2018-09-06T09:06:26.521Z,58.10
2018-09-06T09:07:26.523Z,57.20
2018-09-06T09:08:26.606Z,57.29
2018-09-06T09:09:26.499Z,57.20
2018-09-06T09:10:26.495Z,60.71
2018-09-06T09:11:26.489Z,60.22
2018-09-06T09:12:26.560Z,59.45
2018-09-06T09:13:26.573Z,59.74
2018-09-06T09:14:26.481Z,58.29
2018-09-06T09:15:26.464Z,58.00
2018-09-06T09:16:26.461Z,57.81
2018-09-06T09:17:26.453Z,57.71
2018-09-06T09:18:26.580Z,58.48
2018-09-06T09:19:26.438Z,58.48
2018-09-06T09:20:26.434Z,58.10
2018-09-06T09:21:26.430Z,59.25
2018-09-06T09:22:26.487Z,60.61
2018-09-06T09:23:26.413Z,60.35
2018-09-06T09:24:26.470Z,57.42
2018-09-06T09:25:26.451Z,57.81
2018-09-06T09:26:26.398Z,57.52
2018-09-06T09:27:26.389Z,58.10
2018-09-06T09:28:26.389Z,59.83
2018-09-06T09:29:26.371Z,60.89
2018-09-06T09:30:26.448Z,60.61
2018-09-06T09:31:26.362Z,60.25
2018-09-06T09:32:26.371Z,60.73
2018-09-06T09:33:26.358Z,61.05
2018-09-06T09:34:26.361Z,59.70
2018-09-06T09:35:26.332Z,59.80
2018-09-06T09:36:26.340Z,59.41
2018-09-06T09:37:26.326Z,57.74
2018-09-06T09:38:26.327Z,58.35
2018-09-06T09:39:26.314Z,59.80
2018-09-06T09:40:26.313Z,61.05
2018-09-06T09:41:26.300Z,58.45
2018-09-06T09:42:26.310Z,59.41
2018-09-06T09:43:26.359Z,58.25
2018-09-06T09:44:26.302Z,56.03
2018-09-06T09:45:26.275Z,55.93
2018-09-06T09:48:00.377Z,58.18
2018-09-06T09:49:00.347Z,58.09
2018-09-06T09:50:55.229Z,56.25
2018-09-06T09:51:55.203Z,56.41
2018-09-06T09:53:50.764Z,57.26
2018-09-06T09:54:50.736Z,57.93
2018-09-06T09:56:45.739Z,57.71
2018-09-06T09:57:45.716Z,58.39
2018-09-06T09:59:41.604Z,58.65
2018-09-06T10:00:41.565Z,59.23
2018-09-06T10:02:36.451Z,60.00
2018-09-06T10:03:36.425Z,59.23
2018-09-06T10:05:31.314Z,60.58
2018-09-06T10:06:31.357Z,61.74
2018-09-06T10:08:26.192Z,61.74
2018-09-06T10:09:26.147Z,62.60
2018-09-06T10:11:21.020Z,62.79
2018-09-06T10:12:20.996Z,64.15
2018-09-06T10:14:15.890Z,64.69
2018-09-06T10:15:15.857Z,64.72
2018-09-06T10:17:11.417Z,66.36
2018-09-06T10:18:11.458Z,66.62
2018-09-06T10:20:06.275Z,67.40
2018-09-06T10:21:06.249Z,67.49
2018-09-06T10:23:01.129Z,66.82
2018-09-06T10:24:01.105Z,67.40
2018-09-06T10:25:57.496Z,67.78
2018-09-06T10:26:57.440Z,67.58
2018-09-06T10:28:52.933Z,66.91
2018-09-06T10:29:52.909Z,66.33
2018-09-06T10:31:47.812Z,66.72
2018-09-06T10:32:47.759Z,66.85
2018-09-06T10:35:01.303Z,67.30
2018-09-06T10:36:01.277Z,66.85
2018-09-06T10:37:56.177Z,67.81
2018-09-06T10:38:56.124Z,67.78
2018-09-06T10:40:51.008Z,67.04
2018-09-06T10:41:50.988Z,67.10
2018-09-06T10:43:45.894Z,67.97
2018-09-06T10:44:45.842Z,68.59
2018-09-06T10:46:40.726Z,69.61
2018-09-06T10:47:40.717Z,69.16
2018-09-06T10:49:35.608Z,68.77
2018-09-06T10:50:35.559Z,68.84
2018-09-06T10:52:30.442Z,68.97
2018-09-06T10:53:30.408Z,68.68
2018-09-06T10:55:44.302Z,68.77
2018-09-06T10:56:44.274Z,68.87
2018-09-06T10:58:39.157Z,68.77
2018-09-06T10:59:39.130Z,70.32
2018-09-06T11:01:33.992Z,70.03
2018-09-06T11:02:33.944Z,70.67
2018-09-06T11:04:28.817Z,70.32
2018-09-06T11:05:28.796Z,70.67
2018-09-06T11:07:23.710Z,70.03
2018-09-06T11:08:23.680Z,70.32
2018-09-06T11:10:18.542Z,70.70
2018-09-06T11:11:18.512Z,70.70
2018-09-06T11:13:13.405Z,71.67
2018-09-06T11:14:13.370Z,71.77
2018-09-06T11:16:08.251Z,71.19
2018-09-06T11:17:08.219Z,71.77
2018-09-06T11:19:03.111Z,72.00
2018-09-06T11:20:03.081Z,68.75
2018-09-06T11:21:58.165Z,64.63
2018-09-06T11:22:57.937Z,63.85
2018-09-06T11:24:53.032Z,59.22
2018-09-06T11:25:52.978Z,60.60
2018-09-06T11:27:47.867Z,59.86
2018-09-06T11:28:47.837Z,58.04
2018-09-06T11:30:42.725Z,56.98
2018-09-06T11:31:42.697Z,55.94
2018-09-06T11:33:37.579Z,55.30
2018-09-06T11:34:37.553Z,55.68
2018-09-06T11:36:32.398Z,55.71
2018-09-06T11:37:32.365Z,56.29
2018-09-06T11:39:27.248Z,56.16
2018-09-06T11:40:27.301Z,55.42
2018-09-06T11:42:22.106Z,53.07
2018-09-06T11:43:22.085Z,54.13
2018-09-06T11:45:16.969Z,55.10
2018-09-06T11:46:16.941Z,52.10
2018-09-06T11:48:12.399Z,51.72
2018-09-06T11:49:12.373Z,50.84
2018-09-06T11:51:08.252Z,51.90
2018-09-06T11:52:08.232Z,52.68
2018-09-06T11:54:03.118Z,52.39
2018-09-06T11:55:03.116Z,54.43
2018-09-06T11:56:58.008Z,51.54
2018-09-06T11:57:57.955Z,52.29
2018-09-06T11:59:52.717Z,52.39
2018-09-06T12:00:52.697Z,53.07
2018-09-06T12:02:47.587Z,54.26
2018-09-06T12:03:47.559Z,56.49
2018-09-06T12:05:42.437Z,54.06
2018-09-06T12:06:42.414Z,55.22
2018-09-06T12:08:37.248Z,54.71
2018-09-06T12:09:37.229Z,53.17
2018-09-06T12:11:32.131Z,53.55
2018-09-06T12:12:32.082Z,52.78
2018-09-06T12:14:26.973Z,52.87
2018-09-06T12:15:26.942Z,53.33
2018-09-06T12:17:21.850Z,54.27
2018-09-06T12:18:21.804Z,54.37
2018-09-06T12:20:16.752Z,54.44
2018-09-06T12:21:16.653Z,55.70
2018-09-06T12:23:11.619Z,54.73
2018-09-06T12:24:11.594Z,54.53
2018-09-06T12:26:06.475Z,54.25
2018-09-06T12:27:06.447Z,54.15
2018-09-06T12:29:01.360Z,55.38
2018-09-06T12:30:01.311Z,55.29
2018-09-06T12:31:56.195Z,55.16
2018-09-06T12:32:56.165Z,57.19
2018-09-06T12:34:50.950Z,55.55
2018-09-06T12:35:50.898Z,56.22
2018-09-06T12:37:45.782Z,55.42
2018-09-06T12:38:45.827Z,55.90
2018-09-06T12:40:59.442Z,56.96
2018-09-06T12:41:59.417Z,56.41
2018-09-06T12:43:54.301Z,56.22
2018-09-06T12:44:54.265Z,56.22
2018-09-06T12:46:49.682Z,55.13
2018-09-06T12:47:49.633Z,56.00
2018-09-06T12:49:44.002Z,56.03
2018-09-06T12:50:43.934Z,55.38
2018-09-06T12:52:38.732Z,55.38
2018-09-06T12:53:38.673Z,56.15
2018-09-06T12:55:35.529Z,55.09
2018-09-06T12:56:35.564Z,55.57
2018-09-06T12:58:30.384Z,55.19
2018-09-06T12:59:30.359Z,55.07
2018-09-06T13:01:25.243Z,56.20
2018-09-06T13:02:25.219Z,56.87
2018-09-06T13:04:20.840Z,57.84
2018-09-06T13:05:20.822Z,56.96
2018-09-06T13:07:16.705Z,57.90
2018-09-06T13:08:16.673Z,57.81
2018-09-06T13:10:11.558Z,57.52
2018-09-06T13:11:11.531Z,57.71
2018-09-06T13:13:06.620Z,59.03
2018-09-06T13:14:06.593Z,57.78
2018-09-06T13:16:01.343Z,58.94
2018-09-06T13:17:01.317Z,59.90
2018-09-06T13:18:56.198Z,59.32
2018-09-06T13:19:56.174Z,58.84
2018-09-06T13:21:50.956Z,59.03
2018-09-06T13:22:50.931Z,59.61
2018-09-06T13:24:45.290Z,60.10
2018-09-06T13:25:45.261Z,60.68
2018-09-06T13:27:39.200Z,61.06
2018-09-06T13:28:39.179Z,60.77
2018-09-06T13:30:34.061Z,60.96
2018-09-06T13:31:34.041Z,61.44
2018-09-06T13:33:28.922Z,62.22
2018-09-06T13:34:28.898Z,62.31
2018-09-06T13:36:23.778Z,62.12
2018-09-06T13:37:23.756Z,62.41
2018-09-06T13:39:19.645Z,62.38
2018-09-06T13:40:19.613Z,62.31
2018-09-06T13:42:14.501Z,62.76
2018-09-06T13:43:14.482Z,62.28
2018-09-06T13:45:10.365Z,62.57
2018-09-06T13:46:10.342Z,62.09
2018-09-06T13:48:05.224Z,62.96
2018-09-06T13:49:05.195Z,63.44
2018-09-06T13:51:00.082Z,63.50
2018-09-06T13:52:00.072Z,63.70
2018-09-06T13:53:54.941Z,63.79
2018-09-06T13:54:54.910Z,64.89
2018-09-06T13:56:49.820Z,66.49
2018-09-06T13:57:49.766Z,65.24
2018-09-06T13:59:45.651Z,65.53
2018-09-06T14:00:45.648Z,66.20
2018-09-06T14:02:40.727Z,65.72
2018-09-06T14:03:40.696Z,66.49
2018-09-06T14:05:35.580Z,65.63
2018-09-06T14:06:35.552Z,66.69
2018-09-06T14:08:30.443Z,67.07
2018-09-06T14:09:30.409Z,67.36
2018-09-06T14:11:25.307Z,66.11
2018-09-06T14:12:25.266Z,66.69
2018-09-06T14:14:20.139Z,68.13
2018-09-06T14:15:20.113Z,69.19
2018-09-06T14:17:15.003Z,70.54
2018-09-06T14:18:14.971Z,72.37
2018-09-06T14:20:09.856Z,72.18